createdAt,value
2019-03-29T00:00:40.250Z,8.10
2019-03-29T00:03:09.158Z,7.90
2019-03-29T00:05:37.833Z,7.80
2019-03-29T00:08:06.342Z,7.70
2019-03-29T00:10:35.176Z,7.70
2019-03-29T00:13:04.003Z,7.60
2019-03-29T00:15:33.954Z,7.60
2019-03-29T00:18:02.652Z,7.60
2019-03-29T00:20:31.277Z,7.60
2019-03-29T00:22:59.794Z,7.70
2019-03-29T00:25:28.272Z,7.70
2019-03-29T00:27:57.303Z,7.70
2019-03-29T00:30:25.994Z,7.60
2019-03-29T00:32:55.026Z,7.50
2019-03-29T00:35:23.850Z,7.40
2019-03-29T00:37:53.885Z,7.30
2019-03-29T00:40:22.886Z,7.40
2019-03-29T00:42:51.686Z,7.30
2019-03-29T00:45:20.531Z,7.30
2019-03-29T00:47:49.030Z,7.30
2019-03-29T00:50:17.502Z,7.30
2019-03-29T00:52:46.334Z,7.30
2019-03-29T00:55:15.076Z,7.30
2019-03-29T00:57:43.783Z,7.30
2019-03-29T01:00:12.975Z,7.30
2019-03-29T01:02:41.735Z,7.20
2019-03-29T01:05:10.326Z,7.10
2019-03-29T01:07:39.253Z,7.10
2019-03-29T01:10:08.347Z,7.10
2019-03-29T01:12:37.214Z,7.10
2019-03-29T01:15:08.908Z,7.10
2019-03-29T01:17:38.021Z,7.10
2019-03-29T01:20:08.565Z,7.00
2019-03-29T01:22:37.446Z,6.90
2019-03-29T01:25:08.648Z,6.80
2019-03-29T01:27:37.518Z,6.70
2019-03-29T01:30:08.548Z,6.70
2019-03-29T01:32:37.102Z,6.60
2019-03-29T01:35:09.563Z,6.60
2019-03-29T01:37:38.463Z,6.70
2019-03-29T01:40:08.935Z,6.70
2019-03-29T01:42:38.231Z,6.80
2019-03-29T01:45:08.259Z,6.90
2019-03-29T01:47:36.769Z,6.80
2019-03-29T01:50:07.980Z,6.80
2019-03-29T01:52:37.106Z,6.70
2019-03-29T01:55:07.540Z,6.60
2019-03-29T01:57:36.622Z,6.60
2019-03-29T02:00:09.139Z,6.60
2019-03-29T02:02:38.079Z,6.50
2019-03-29T02:05:09.372Z,6.50
2019-03-29T02:07:38.448Z,6.40
2019-03-29T02:10:09.111Z,6.50
2019-03-29T02:12:37.794Z,6.60
2019-03-29T02:15:08.439Z,6.60
2019-03-29T02:17:37.938Z,6.50
2019-03-29T02:20:07.490Z,6.40
2019-03-29T02:22:36.304Z,6.30
2019-03-29T02:25:07.665Z,6.30
2019-03-29T02:27:36.293Z,6.20
2019-03-29T02:30:06.799Z,6.10
2019-03-29T02:32:35.358Z,6.20
2019-03-29T02:35:04.736Z,6.30
2019-03-29T02:37:33.679Z,6.40
2019-03-29T02:40:02.748Z,6.40
2019-03-29T02:42:31.286Z,6.30
2019-03-29T02:44:59.803Z,6.20
2019-03-29T02:47:28.454Z,6.20
2019-03-29T02:49:57.447Z,6.30
2019-03-29T02:52:26.016Z,6.20
2019-03-29T02:54:54.621Z,6.10
2019-03-29T02:57:23.156Z,6.00
2019-03-29T02:59:51.769Z,6.10
2019-03-29T03:02:20.742Z,6.20
2019-03-29T03:04:49.279Z,6.00
2019-03-29T03:07:17.833Z,6.00
2019-03-29T03:09:46.507Z,6.00
2019-03-29T03:12:15.135Z,6.10
2019-03-29T03:14:43.664Z,6.10
2019-03-29T03:17:12.584Z,6.10
2019-03-29T03:19:41.130Z,6.10
2019-03-29T03:22:09.774Z,6.10
2019-03-29T03:24:38.680Z,6.10
2019-03-29T03:27:07.288Z,6.00
2019-03-29T03:29:35.816Z,6.10
2019-03-29T03:32:04.455Z,6.00
2019-03-29T03:34:33.331Z,6.00
2019-03-29T03:37:01.860Z,6.00
2019-03-29T03:39:32.557Z,6.00
2019-03-29T03:42:00.716Z,5.90
2019-03-29T03:44:29.510Z,5.90
2019-03-29T03:46:58.132Z,5.80
2019-03-29T03:49:26.761Z,5.70
2019-03-29T03:51:55.340Z,5.60
2019-03-29T03:54:24.209Z,5.60
2019-03-29T03:56:53.741Z,5.60
2019-03-29T03:59:25.913Z,5.60
2019-03-29T04:01:54.560Z,5.60
2019-03-29T04:04:23.194Z,5.50
2019-03-29T04:06:52.274Z,5.60
2019-03-29T04:09:21.287Z,5.60
2019-03-29T04:11:49.897Z,5.60
2019-03-29T04:14:18.347Z,5.60
2019-03-29T04:16:47.232Z,5.60
2019-03-29T04:19:15.800Z,5.50
2019-03-29T04:21:44.809Z,5.60
2019-03-29T04:24:13.450Z,5.50
2019-03-29T04:26:42.350Z,5.50
2019-03-29T04:29:10.974Z,5.50
2019-03-29T04:31:39.533Z,5.50
2019-03-29T04:34:08.374Z,5.40
2019-03-29T04:36:37.221Z,5.30
2019-03-29T04:39:06.341Z,5.30
2019-03-29T04:41:35.170Z,5.40
2019-03-29T04:44:03.875Z,5.40
2019-03-29T04:46:32.439Z,5.40
2019-03-29T04:49:00.983Z,5.40
2019-03-29T04:51:29.539Z,5.30
2019-03-29T04:53:58.070Z,5.40
2019-03-29T04:56:26.938Z,5.40
2019-03-29T04:58:55.510Z,5.20
2019-03-29T05:01:24.464Z,5.10
2019-03-29T05:03:53.149Z,5.30
2019-03-29T05:06:21.824Z,5.30
2019-03-29T05:08:50.481Z,5.20
2019-03-29T05:11:19.538Z,5.30
2019-03-29T05:13:48.075Z,5.40
2019-03-29T05:16:16.582Z,5.30
2019-03-29T05:18:45.385Z,5.40
2019-03-29T05:21:14.215Z,5.20
2019-03-29T05:23:42.716Z,5.10
2019-03-29T05:26:11.527Z,5.10
2019-03-29T05:28:40.164Z,5.00
2019-03-29T05:31:08.737Z,5.00
2019-03-29T05:33:37.606Z,5.00
2019-03-29T05:36:06.083Z,5.10
2019-03-29T05:38:35.090Z,5.20
2019-03-29T05:41:04.311Z,5.20
2019-03-29T05:43:33.053Z,5.20
2019-03-29T05:46:01.602Z,5.20
2019-03-29T05:48:30.152Z,5.20
2019-03-29T05:50:58.714Z,5.20
2019-03-29T05:53:27.251Z,5.30
2019-03-29T05:55:56.151Z,5.30
2019-03-29T05:58:24.647Z,5.50
2019-03-29T06:00:53.403Z,5.70
2019-03-29T06:03:22.166Z,5.90
2019-03-29T06:05:50.708Z,5.90
2019-03-29T06:08:19.208Z,5.90
2019-03-29T06:10:49.434Z,5.90
2019-03-29T06:13:18.284Z,5.90
2019-03-29T06:15:47.031Z,6.00
2019-03-29T06:18:15.483Z,6.20
2019-03-29T06:20:44.019Z,6.20
2019-03-29T06:23:12.663Z,6.40
2019-03-29T06:25:41.227Z,6.60
2019-03-29T06:28:09.766Z,6.80
2019-03-29T06:30:38.431Z,7.10
2019-03-29T06:33:07.426Z,7.50
2019-03-29T06:35:38.821Z,7.70
2019-03-29T06:38:08.946Z,7.70
2019-03-29T06:40:37.900Z,7.80
2019-03-29T06:43:06.922Z,7.80
2019-03-29T06:45:47.162Z,8.00
2019-03-29T06:48:05.732Z,8.10
2019-03-29T06:50:34.438Z,8.10
2019-03-29T06:53:03.135Z,8.40
2019-03-29T06:55:32.022Z,8.70
2019-03-29T06:58:00.752Z,9.20
2019-03-29T07:00:29.383Z,9.60
2019-03-29T07:02:58.142Z,9.80
2019-03-29T07:05:27.066Z,10.00
2019-03-29T07:07:56.195Z,10.00
2019-03-29T07:10:24.813Z,10.20
2019-03-29T07:12:56.465Z,10.30
2019-03-29T07:15:24.593Z,10.70
2019-03-29T07:17:53.591Z,11.00
2019-03-29T07:20:22.501Z,11.50
2019-03-29T07:22:51.087Z,11.90
2019-03-29T07:25:20.123Z,12.40
2019-03-29T07:27:52.217Z,13.00
2019-03-29T07:30:19.347Z,13.20
2019-03-29T07:32:48.528Z,13.40
2019-03-29T07:35:17.300Z,13.70
2019-03-29T07:37:45.954Z,13.90
2019-03-29T07:40:15.289Z,14.00
2019-03-29T07:42:44.373Z,14.20
2019-03-29T07:45:13.423Z,14.70
2019-03-29T07:47:42.435Z,15.50
2019-03-29T07:50:11.221Z,16.00
2019-03-29T07:52:39.988Z,16.00
2019-03-29T07:55:08.552Z,16.10
2019-03-29T07:57:37.247Z,16.30
2019-03-29T08:00:08.056Z,16.50
2019-03-29T08:02:36.755Z,16.80
2019-03-29T08:05:06.328Z,17.40
2019-03-29T08:07:34.998Z,17.90
2019-03-29T08:10:05.268Z,18.60
2019-03-29T08:12:34.058Z,19.00
2019-03-29T08:15:03.360Z,19.40
2019-03-29T08:17:32.214Z,20.00
2019-03-29T08:20:24.983Z,20.60
2019-03-29T08:22:31.657Z,20.70
2019-03-29T08:25:00.283Z,20.80
2019-03-29T08:27:29.028Z,21.30
2019-03-29T08:29:58.104Z,21.40
2019-03-29T08:32:26.999Z,21.10
2019-03-29T08:34:55.629Z,20.60
2019-03-29T08:37:24.806Z,20.30
2019-03-29T08:39:56.347Z,19.60
2019-03-29T08:42:25.425Z,19.60
2019-03-29T08:44:57.093Z,19.80
2019-03-29T08:47:26.057Z,19.50
2019-03-29T08:49:54.547Z,19.20
2019-03-29T08:52:23.158Z,19.10
2019-03-29T08:54:58.018Z,19.30
2019-03-29T08:57:30.752Z,19.30
2019-03-29T09:00:01.432Z,19.10
2019-03-29T09:02:30.130Z,18.90
2019-03-29T09:04:58.785Z,18.80
2019-03-29T09:07:43.586Z,18.80
2019-03-29T09:10:00.791Z,18.50
2019-03-29T09:12:29.770Z,18.30
2019-03-29T09:15:03.486Z,18.10
2019-03-29T09:17:28.924Z,17.90
2019-03-29T09:19:57.644Z,17.70
2019-03-29T09:22:26.185Z,17.60
2019-03-29T09:24:54.671Z,17.40
2019-03-29T09:27:23.446Z,17.00
2019-03-29T09:29:52.188Z,17.00
2019-03-29T09:32:20.742Z,17.00
2019-03-29T09:34:49.209Z,16.90
2019-03-29T09:37:17.987Z,17.00
2019-03-29T09:39:46.511Z,17.00
2019-03-29T09:42:28.174Z,17.10
2019-03-29T09:44:46.388Z,17.20
2019-03-29T09:47:14.844Z,17.30
2019-03-29T09:49:43.575Z,17.40
2019-03-29T09:52:12.407Z,17.30
2019-03-29T09:57:15.549Z,17.00
2019-03-29T09:59:55.227Z,17.20
2019-03-29T10:02:23.667Z,17.30
2019-03-29T10:04:52.451Z,17.20
2019-03-29T10:07:20.886Z,17.30
2019-03-29T10:09:49.328Z,17.40
2019-03-29T10:12:17.771Z,17.50
2019-03-29T10:14:46.496Z,17.70
2019-03-29T10:17:15.231Z,17.70
2019-03-29T10:19:43.981Z,17.70
2019-03-29T10:22:12.424Z,17.80
2019-03-29T10:24:40.890Z,17.80
2019-03-29T10:27:09.654Z,17.80
2019-03-29T10:29:38.127Z,17.90
2019-03-29T10:32:09.408Z,18.00
2019-03-29T10:34:37.616Z,18.10
2019-03-29T10:37:06.397Z,18.00
2019-03-29T10:39:35.815Z,18.10
2019-03-29T10:42:04.871Z,18.20
2019-03-29T10:44:33.330Z,18.10
2019-03-29T10:47:01.794Z,18.00
2019-03-29T10:49:30.388Z,18.00
2019-03-29T10:51:59.036Z,18.00
2019-03-29T10:54:28.022Z,17.80
2019-03-29T10:56:56.548Z,17.60
2019-03-29T10:59:27.841Z,17.80
2019-03-29T11:01:55.559Z,17.80
2019-03-29T11:04:24.108Z,17.90
2019-03-29T11:06:52.861Z,18.00
2019-03-29T11:09:21.648Z,18.00
2019-03-29T11:11:50.419Z,18.10
2019-03-29T11:14:19.269Z,18.10
2019-03-29T11:16:49.768Z,18.30
2019-03-29T11:19:18.412Z,18.60
2019-03-29T11:21:52.794Z,18.70
2019-03-29T11:27:17.818Z,18.80
2019-03-29T11:30:02.276Z,18.40
2019-03-29T11:35:51.663Z,18.20
2019-03-29T11:38:24.083Z,18.20
2019-03-29T11:40:52.953Z,18.30
2019-03-29T11:43:27.047Z,18.30
2019-03-29T11:45:52.247Z,18.00
2019-03-29T11:48:20.775Z,18.00
2019-03-29T11:50:49.567Z,18.10
2019-03-29T11:53:18.421Z,18.20
2019-03-29T11:55:47.225Z,18.30
2019-03-29T11:58:16.035Z,18.30
2019-03-29T12:00:44.942Z,18.10
2019-03-29T12:03:14.188Z,18.10
2019-03-29T12:05:48.895Z,18.10
2019-03-29T12:08:17.799Z,18.20
2019-03-29T12:10:46.501Z,18.20
2019-03-29T12:13:15.043Z,18.20
2019-03-29T12:15:47.523Z,18.20
2019-03-29T12:18:16.396Z,18.20
2019-03-29T12:20:44.954Z,18.10
2019-03-29T12:23:13.734Z,18.10
2019-03-29T12:25:45.189Z,18.10
2019-03-29T12:28:16.548Z,18.30
2019-03-29T12:30:45.645Z,18.20
2019-03-29T12:33:14.425Z,18.20
2019-03-29T12:35:42.890Z,18.40
2019-03-29T12:38:11.387Z,18.50
2019-03-29T12:40:40.089Z,18.50
2019-03-29T12:43:08.534Z,18.50
2019-03-29T12:45:37.228Z,18.70
2019-03-29T12:48:05.920Z,18.60
2019-03-29T12:50:34.630Z,18.40
2019-03-29T12:53:03.065Z,18.40
2019-03-29T12:55:31.859Z,18.30
2019-03-29T12:58:00.970Z,18.40
2019-03-29T13:00:29.830Z,18.50
2019-03-29T13:02:58.340Z,18.60
2019-03-29T13:05:26.810Z,18.80
2019-03-29T13:07:55.685Z,18.90
2019-03-29T13:10:25.130Z,18.90
2019-03-29T13:12:53.883Z,19.00
2019-03-29T13:15:22.397Z,18.90
2019-03-29T13:17:50.834Z,18.90
2019-03-29T13:20:19.538Z,18.90
2019-03-29T13:22:48.001Z,18.70
2019-03-29T13:25:16.550Z,18.80
2019-03-29T13:27:45.512Z,18.80
2019-03-29T13:30:17.195Z,18.80
2019-03-29T13:32:45.479Z,18.70
2019-03-29T13:35:14.437Z,18.80
2019-03-29T13:37:43.553Z,18.90
2019-03-29T13:40:12.889Z,18.90
2019-03-29T13:42:42.001Z,19.10
2019-03-29T13:45:11.447Z,19.10
2019-03-29T13:47:40.222Z,19.10
2019-03-29T13:50:09.680Z,19.10
2019-03-29T13:52:38.475Z,19.10
2019-03-29T13:55:07.863Z,19.00
2019-03-29T13:57:36.564Z,19.10
2019-03-29T14:00:10.282Z,19.10
2019-03-29T14:02:39.213Z,19.10
2019-03-29T14:05:08.775Z,19.00
2019-03-29T14:07:38.305Z,19.00
2019-03-29T14:10:08.703Z,18.80
2019-03-29T14:12:38.617Z,18.60
2019-03-29T14:15:12.710Z,18.60
2019-03-29T14:17:41.246Z,18.60
2019-03-29T14:20:11.199Z,18.70
2019-03-29T14:22:40.254Z,18.60
2019-03-29T14:25:08.998Z,18.60
2019-03-29T14:27:37.788Z,18.50
2019-03-29T14:30:08.213Z,18.40
2019-03-29T14:32:36.749Z,18.50
2019-03-29T14:35:07.623Z,18.50
2019-03-29T14:37:36.079Z,18.50
2019-03-29T14:40:07.095Z,18.50
2019-03-29T14:42:35.688Z,18.50
2019-03-29T14:45:08.902Z,18.40
2019-03-29T14:47:42.972Z,18.40
2019-03-29T14:50:09.147Z,18.30
2019-03-29T14:52:37.741Z,18.30
2019-03-29T14:55:07.104Z,18.30
2019-03-29T14:57:35.917Z,18.40
2019-03-29T15:00:07.726Z,18.50
2019-03-29T15:02:36.163Z,18.60
2019-03-29T15:05:06.917Z,18.60
2019-03-29T15:07:36.162Z,18.60
2019-03-29T15:10:06.520Z,18.60
2019-03-29T15:12:35.236Z,18.60
2019-03-29T15:15:07.092Z,18.60
2019-03-29T15:17:36.365Z,18.60
2019-03-29T15:20:06.857Z,18.50
2019-03-29T15:22:35.401Z,18.50
2019-03-29T15:25:04.721Z,18.50
2019-03-29T15:27:33.230Z,18.50
2019-03-29T15:30:01.903Z,18.50
2019-03-29T15:32:30.771Z,18.50
2019-03-29T15:34:59.286Z,18.50
2019-03-29T15:37:28.061Z,18.50
2019-03-29T15:39:57.020Z,18.50
2019-03-29T15:42:26.269Z,18.50
2019-03-29T15:44:54.995Z,18.50
2019-03-29T15:47:23.695Z,18.50
2019-03-29T15:49:56.259Z,18.50
2019-03-29T15:52:22.912Z,18.50
2019-03-29T15:54:51.616Z,18.50
2019-03-29T15:57:20.067Z,18.50
2019-03-29T15:59:48.791Z,18.50
2019-03-29T16:02:17.287Z,18.30
2019-03-29T16:04:46.084Z,18.20
2019-03-29T16:07:14.856Z,18.20
2019-03-29T16:09:43.315Z,18.20
2019-03-29T16:12:11.802Z,18.10
2019-03-29T16:14:40.729Z,18.10
2019-03-29T16:17:09.547Z,18.20
2019-03-29T16:19:38.053Z,18.10
2019-03-29T16:22:06.804Z,18.10
2019-03-29T16:24:35.238Z,18.10
2019-03-29T16:27:03.679Z,18.10
2019-03-29T16:29:32.394Z,18.00
2019-03-29T16:32:01.148Z,18.10
2019-03-29T16:34:29.573Z,18.10
2019-03-29T16:36:58.040Z,18.10
2019-03-29T16:39:26.468Z,18.00
2019-03-29T16:41:54.988Z,18.00
2019-03-29T16:44:23.735Z,18.00
2019-03-29T16:46:52.561Z,17.90
2019-03-29T16:49:21.003Z,17.90
2019-03-29T16:51:49.475Z,17.80
2019-03-29T16:54:18.278Z,17.90
2019-03-29T16:56:48.347Z,17.80
2019-03-29T16:59:17.179Z,17.70
2019-03-29T17:01:45.673Z,17.60
2019-03-29T17:04:14.134Z,17.50
2019-03-29T17:06:42.579Z,17.50
2019-03-29T17:09:11.337Z,17.40
2019-03-29T17:11:40.103Z,17.40
2019-03-29T17:14:08.587Z,17.40
2019-03-29T17:16:37.351Z,17.30
2019-03-29T17:19:06.091Z,17.20
2019-03-29T17:21:34.824Z,17.10
2019-03-29T17:24:03.733Z,17.10
2019-03-29T17:26:32.152Z,17.10
2019-03-29T17:29:00.615Z,17.10
2019-03-29T17:31:29.335Z,17.00
2019-03-29T17:33:57.779Z,16.90
2019-03-29T17:36:26.207Z,16.80
2019-03-29T17:38:54.655Z,16.70
2019-03-29T17:41:23.087Z,16.70
2019-03-29T17:43:51.839Z,16.60
2019-03-29T17:46:20.560Z,16.50
2019-03-29T17:48:49.007Z,16.40
2019-03-29T17:51:17.443Z,16.40
2019-03-29T17:53:45.882Z,16.40
2019-03-29T17:56:14.616Z,16.30
2019-03-29T17:58:43.375Z,16.10
2019-03-29T18:01:11.806Z,16.10
2019-03-29T18:03:40.555Z,15.90
2019-03-29T18:06:09.289Z,15.80
2019-03-29T18:08:37.738Z,15.70
2019-03-29T18:11:06.479Z,15.60
2019-03-29T18:13:35.239Z,15.40
2019-03-29T18:16:04.027Z,15.40
2019-03-29T18:18:32.808Z,15.30
2019-03-29T18:21:01.631Z,15.20
2019-03-29T18:23:30.129Z,15.20
2019-03-29T18:25:58.623Z,15.10
2019-03-29T18:28:27.070Z,15.00
2019-03-29T18:30:55.930Z,14.90
2019-03-29T18:33:24.678Z,14.90
2019-03-29T18:35:53.281Z,14.80
2019-03-29T18:38:21.737Z,14.80
2019-03-29T18:40:50.496Z,14.70
2019-03-29T18:43:18.948Z,14.70
2019-03-29T18:45:47.411Z,14.70
2019-03-29T18:48:15.869Z,14.50
2019-03-29T18:50:44.638Z,14.50
2019-03-29T18:53:13.435Z,14.40
2019-03-29T18:55:42.207Z,14.40
2019-03-29T18:58:10.667Z,14.30
2019-03-29T19:00:39.130Z,14.20
2019-03-29T19:03:10.221Z,14.10
2019-03-29T19:05:38.319Z,14.10
2019-03-29T19:08:07.075Z,14.10
2019-03-29T19:10:35.824Z,14.00
2019-03-29T19:13:04.371Z,14.00
2019-03-29T19:15:33.144Z,13.90
2019-03-29T19:18:01.910Z,13.90
2019-03-29T19:20:30.664Z,13.90
2019-03-29T19:22:59.104Z,13.90
2019-03-29T19:25:27.596Z,13.80
2019-03-29T19:27:56.099Z,13.70
2019-03-29T19:30:24.840Z,13.70
2019-03-29T19:32:53.315Z,13.60
2019-03-29T19:35:21.890Z,13.60
2019-03-29T19:37:50.652Z,13.60
2019-03-29T19:40:19.115Z,13.50
2019-03-29T19:42:47.856Z,13.50
2019-03-29T19:45:16.965Z,13.40
2019-03-29T19:47:45.435Z,13.30
2019-03-29T19:50:15.703Z,13.30
2019-03-29T19:52:44.213Z,13.20
2019-03-29T19:55:12.996Z,13.20
2019-03-29T19:57:41.792Z,13.30
2019-03-29T20:00:12.846Z,13.20
2019-03-29T20:02:41.465Z,13.00
2019-03-29T20:05:13.226Z,12.90
2019-03-29T20:07:41.669Z,12.90
2019-03-29T20:10:10.565Z,12.90
2019-03-29T20:12:39.099Z,12.90
2019-03-29T20:15:08.117Z,12.80
2019-03-29T20:17:36.619Z,12.80
2019-03-29T20:20:06.676Z,12.80
2019-03-29T20:22:35.212Z,12.80
2019-03-29T20:25:06.206Z,12.80
2019-03-29T20:27:34.729Z,12.70
2019-03-29T20:30:03.564Z,12.70
2019-03-29T20:32:32.355Z,12.70
2019-03-29T20:35:00.882Z,12.60
2019-03-29T20:37:29.633Z,12.50
2019-03-29T20:39:58.481Z,12.40
2019-03-29T20:42:26.921Z,12.40
2019-03-29T20:44:55.741Z,12.40
2019-03-29T20:47:24.192Z,12.40
2019-03-29T20:49:52.665Z,12.30
2019-03-29T20:52:21.427Z,12.30
2019-03-29T20:54:49.873Z,12.30
2019-03-29T20:57:18.315Z,12.20
2019-03-29T20:59:47.247Z,12.20
2019-03-29T21:02:16.132Z,12.10
2019-03-29T21:04:44.869Z,12.10
2019-03-29T21:07:13.325Z,12.20
2019-03-29T21:09:42.025Z,12.30
2019-03-29T21:12:10.464Z,12.10
2019-03-29T21:14:38.919Z,12.10
2019-03-29T21:17:07.404Z,12.10
2019-03-29T21:19:35.924Z,12.00
2019-03-29T21:22:04.735Z,12.10
2019-03-29T21:24:33.183Z,12.10
2019-03-29T21:27:01.928Z,11.90
2019-03-29T21:29:30.389Z,11.70
2019-03-29T21:31:58.845Z,11.70
2019-03-29T21:34:27.610Z,11.80
2019-03-29T21:36:56.056Z,11.70
2019-03-29T21:39:24.518Z,11.50
2019-03-29T21:41:53.072Z,11.60
2019-03-29T21:44:21.834Z,11.50
2019-03-29T21:46:50.354Z,11.40
2019-03-29T21:49:18.814Z,11.40
2019-03-29T21:51:47.357Z,11.30
2019-03-29T21:54:15.888Z,11.30
2019-03-29T21:56:44.396Z,11.20
2019-03-29T21:59:13.326Z,11.20
2019-03-29T22:01:42.067Z,11.10
2019-03-29T22:04:10.527Z,11.20
2019-03-29T22:06:39.382Z,11.10
2019-03-29T22:09:08.371Z,11.10
2019-03-29T22:11:36.899Z,11.10
2019-03-29T22:14:05.647Z,11.10
2019-03-29T22:16:34.461Z,11.10
2019-03-29T22:19:02.903Z,11.20
2019-03-29T22:21:31.663Z,11.10
2019-03-29T22:24:00.156Z,11.00
2019-03-29T22:26:28.623Z,10.90
2019-03-29T22:28:57.162Z,10.90
2019-03-29T22:31:25.992Z,10.90
2019-03-29T22:33:54.478Z,10.90
2019-03-29T22:36:23.213Z,10.80
2019-03-29T22:38:52.017Z,10.60
2019-03-29T22:41:20.789Z,10.50
2019-03-29T22:43:49.270Z,10.30
2019-03-29T22:46:18.095Z,10.30
2019-03-29T22:48:52.525Z,10.30
2019-03-29T22:51:17.055Z,10.50
2019-03-29T22:53:45.951Z,10.50
2019-03-29T22:56:14.837Z,10.50
2019-03-29T22:58:43.607Z,10.30
2019-03-29T23:01:12.879Z,10.30
2019-03-29T23:03:41.777Z,10.30
2019-03-29T23:06:10.525Z,10.30
2019-03-29T23:08:39.335Z,10.20
2019-03-29T23:11:07.922Z,10.20
2019-03-29T23:13:36.439Z,10.30
2019-03-29T23:16:04.940Z,10.10
2019-03-29T23:18:33.693Z,10.00
2019-03-29T23:21:02.150Z,9.80
2019-03-29T23:23:30.591Z,9.70
2019-03-29T23:25:59.378Z,9.60
2019-03-29T23:28:28.136Z,9.70
2019-03-29T23:30:56.900Z,9.70
2019-03-29T23:33:25.644Z,9.70
2019-03-29T23:35:54.120Z,9.70
2019-03-29T23:38:22.592Z,9.60
2019-03-29T23:40:51.063Z,9.70
2019-03-29T23:43:19.821Z,9.60
2019-03-29T23:45:48.367Z,9.70
2019-03-29T23:48:17.151Z,9.70
2019-03-29T23:50:45.642Z,9.50
2019-03-29T23:53:14.562Z,9.40
2019-03-29T23:55:43.377Z,9.20
2019-03-29T23:58:11.908Z,9.20
